sensor_id;sensor_type;location;lat;lon;timestamp;P1;durP1;ratioP1;P2;durP2;ratioP2
51810;SDS011;52468;40.116;18.296;2023-03-20T00:02:18;33.77;;;21.87;;
51810;SDS011;52468;40.116;18.296;2023-03-20T00:04:48;28.60;;;20.27;;
51810;SDS011;52468;40.116;18.296;2023-03-20T00:07:17;27.93;;;19.47;;
51810;SDS011;52468;40.116;18.296;2023-03-20T00:09:44;36.10;;;21.87;;
51810;SDS011;52468;40.116;18.296;2023-03-20T00:12:14;32.60;;;20.17;;
51810;SDS011;52468;40.116;18.296;2023-03-20T00:14:48;29.87;;;21.00;;
51810;SDS011;52468;40.116;18.296;2023-03-20T00:17:18;32.90;;;21.37;;
51810;SDS011;52468;40.116;18.296;2023-03-20T00:19:47;34.17;;;21.90;;
51810;SDS011;52468;40.116;18.296;2023-03-20T00:22:15;30.47;;;19.40;;
51810;SDS011;52468;40.116;18.296;2023-03-20T00:24:43;31.97;;;20.03;;
51810;SDS011;52468;40.116;18.296;2023-03-20T00:27:11;38.07;;;22.70;;
51810;SDS011;52468;40.116;18.296;2023-03-20T00:29:41;34.43;;;22.30;;
51810;SDS011;52468;40.116;18.296;2023-03-20T00:32:10;31.07;;;19.80;;
51810;SDS011;52468;40.116;18.296;2023-03-20T00:34:39;31.50;;;21.10;;
51810;SDS011;52468;40.116;18.296;2023-03-20T00:37:07;36.73;;;22.97;;
51810;SDS011;52468;40.116;18.296;2023-03-20T00:39:38;33.30;;;23.83;;
51810;SDS011;52468;40.116;18.296;2023-03-20T00:42:06;46.17;;;26.20;;
51810;SDS011;52468;40.116;18.296;2023-03-20T00:44:49;44.17;;;27.30;;
51810;SDS011;52468;40.116;18.296;2023-03-20T00:47:23;35.60;;;24.73;;
51810;SDS011;52468;40.116;18.296;2023-03-20T00:49:53;38.60;;;24.93;;
51810;SDS011;52468;40.116;18.296;2023-03-20T00:52:22;38.17;;;25.40;;
51810;SDS011;52468;40.116;18.296;2023-03-20T00:54:50;42.20;;;25.47;;
51810;SDS011;52468;40.116;18.296;2023-03-20T01:00:22;45.07;;;27.00;;
51810;SDS011;52468;40.116;18.296;2023-03-20T01:03:24;39.87;;;27.80;;
51810;SDS011;52468;40.116;18.296;2023-03-20T01:05:52;39.87;;;27.30;;
51810;SDS011;52468;40.116;18.296;2023-03-20T01:08:22;45.70;;;29.37;;
51810;SDS011;52468;40.116;18.296;2023-03-20T01:10:52;48.93;;;28.07;;
51810;SDS011;52468;40.116;18.296;2023-03-20T01:13:23;46.03;;;30.27;;
51810;SDS011;52468;40.116;18.296;2023-03-20T01:15:53;44.87;;;29.63;;
51810;SDS011;52468;40.116;18.296;2023-03-20T01:18:23;41.97;;;29.50;;
51810;SDS011;52468;40.116;18.296;2023-03-20T01:20:52;47.87;;;31.53;;
51810;SDS011;52468;40.116;18.296;2023-03-20T01:23:20;45.27;;;31.10;;
51810;SDS011;52468;40.116;18.296;2023-03-20T01:25:53;49.83;;;32.67;;
51810;SDS011;52468;40.116;18.296;2023-03-20T01:28:21;46.70;;;31.93;;
51810;SDS011;52468;40.116;18.296;2023-03-20T01:30:50;49.97;;;30.10;;
51810;SDS011;52468;40.116;18.296;2023-03-20T01:33:21;49.37;;;31.20;;
51810;SDS011;52468;40.116;18.296;2023-03-20T01:35:54;45.13;;;30.63;;
51810;SDS011;52468;40.116;18.296;2023-03-20T01:38:24;46.67;;;30.70;;
51810;SDS011;52468;40.116;18.296;2023-03-20T01:43:29;45.28;;;27.98;;
51810;SDS011;52468;40.116;18.296;2023-03-20T01:51:20;41.37;;;28.43;;
51810;SDS011;52468;40.116;18.296;2023-03-20T01:53:57;47.07;;;29.63;;
51810;SDS011;52468;40.116;18.296;2023-03-20T01:56:50;43.97;;;28.47;;
51810;SDS011;52468;40.116;18.296;2023-03-20T02:02:13;43.73;;;30.37;;
51810;SDS011;52468;40.116;18.296;2023-03-20T02:04:46;40.90;;;28.40;;
51810;SDS011;52468;40.116;18.296;2023-03-20T02:07:19;49.47;;;31.17;;
51810;SDS011;52468;40.116;18.296;2023-03-20T02:09:57;41.80;;;29.03;;
51810;SDS011;52468;40.116;18.296;2023-03-20T02:12:42;46.93;;;30.83;;
51810;SDS011;52468;40.116;18.296;2023-03-20T02:15:14;53.58;;;29.48;;
51810;SDS011;52468;40.116;18.296;2023-03-20T02:18:12;47.90;;;29.07;;
51810;SDS011;52468;40.116;18.296;2023-03-20T02:26:33;45.40;;;30.83;;
51810;SDS011;52468;40.116;18.296;2023-03-20T02:40:13;50.40;;;29.33;;
51810;SDS011;52468;40.116;18.296;2023-03-20T02:51:18;41.27;;;26.20;;
51810;SDS011;52468;40.116;18.296;2023-03-20T02:53:52;37.27;;;25.17;;
51810;SDS011;52468;40.116;18.296;2023-03-20T02:56:49;41.27;;;24.90;;
51810;SDS011;52468;40.116;18.296;2023-03-20T03:02:21;38.00;;;24.17;;
51810;SDS011;52468;40.116;18.296;2023-03-20T03:05:01;36.53;;;24.60;;
51810;SDS011;52468;40.116;18.296;2023-03-20T03:07:43;37.47;;;24.60;;
51810;SDS011;52468;40.116;18.296;2023-03-20T03:12:47;40.17;;;24.57;;
51810;SDS011;52468;40.116;18.296;2023-03-20T03:15:25;33.87;;;23.23;;
51810;SDS011;52468;40.116;18.296;2023-03-20T03:17:59;31.10;;;21.17;;
51810;SDS011;52468;40.116;18.296;2023-03-20T03:20:33;34.15;;;22.35;;
51810;SDS011;52468;40.116;18.296;2023-03-20T03:23:04;35.90;;;23.50;;
51810;SDS011;52468;40.116;18.296;2023-03-20T03:25:34;36.27;;;22.30;;
51810;SDS011;52468;40.116;18.296;2023-03-20T03:30:53;33.23;;;21.17;;
51810;SDS011;52468;40.116;18.296;2023-03-20T03:33:24;31.70;;;21.40;;
51810;SDS011;52468;40.116;18.296;2023-03-20T03:36:01;30.40;;;21.10;;
51810;SDS011;52468;40.116;18.296;2023-03-20T03:38:53;29.42;;;19.85;;
51810;SDS011;52468;40.116;18.296;2023-03-20T03:41:30;33.07;;;21.00;;
51810;SDS011;52468;40.116;18.296;2023-03-20T03:49:47;42.43;;;21.27;;
51810;SDS011;52468;40.116;18.296;2023-03-20T03:52:21;35.20;;;19.92;;
51810;SDS011;52468;40.116;18.296;2023-03-20T03:55:09;29.17;;;19.02;;
51810;SDS011;52468;40.116;18.296;2023-03-20T03:57:57;32.20;;;17.87;;
51810;SDS011;52468;40.116;18.296;2023-03-20T04:00:35;31.97;;;19.33;;
51810;SDS011;52468;40.116;18.296;2023-03-20T04:03:07;34.03;;;19.10;;
51810;SDS011;52468;40.116;18.296;2023-03-20T04:05:36;33.37;;;18.63;;
51810;SDS011;52468;40.116;18.296;2023-03-20T04:08:09;35.97;;;19.00;;
51810;SDS011;52468;40.116;18.296;2023-03-20T04:10:40;30.50;;;18.17;;
51810;SDS011;52468;40.116;18.296;2023-03-20T04:13:08;31.97;;;19.70;;
51810;SDS011;52468;40.116;18.296;2023-03-20T04:15:37;42.97;;;18.83;;
51810;SDS011;52468;40.116;18.296;2023-03-20T04:18:07;31.43;;;20.27;;
51810;SDS011;52468;40.116;18.296;2023-03-20T04:20:46;25.30;;;17.47;;
51810;SDS011;52468;40.116;18.296;2023-03-20T04:23:16;31.00;;;19.03;;
51810;SDS011;52468;40.116;18.296;2023-03-20T04:25:43;28.97;;;17.27;;
51810;SDS011;52468;40.116;18.296;2023-03-20T04:28:11;26.17;;;17.87;;
51810;SDS011;52468;40.116;18.296;2023-03-20T04:31:05;28.38;;;15.80;;
51810;SDS011;52468;40.116;18.296;2023-03-20T04:33:42;28.60;;;19.23;;
51810;SDS011;52468;40.116;18.296;2023-03-20T04:36:25;26.83;;;17.70;;
51810;SDS011;52468;40.116;18.296;2023-03-20T04:38:54;27.60;;;17.37;;
51810;SDS011;52468;40.116;18.296;2023-03-20T04:41:24;36.20;;;18.80;;
51810;SDS011;52468;40.116;18.296;2023-03-20T04:43:55;28.07;;;18.70;;
51810;SDS011;52468;40.116;18.296;2023-03-20T04:46:23;26.57;;;17.70;;
51810;SDS011;52468;40.116;18.296;2023-03-20T04:48:52;31.37;;;18.67;;
51810;SDS011;52468;40.116;18.296;2023-03-20T04:51:20;29.93;;;17.53;;
51810;SDS011;52468;40.116;18.296;2023-03-20T04:53:49;30.03;;;18.20;;
51810;SDS011;52468;40.116;18.296;2023-03-20T04:56:17;29.27;;;18.77;;
51810;SDS011;52468;40.116;18.296;2023-03-20T04:58:47;28.17;;;17.17;;
51810;SDS011;52468;40.116;18.296;2023-03-20T05:01:18;26.83;;;19.43;;
51810;SDS011;52468;40.116;18.296;2023-03-20T05:03:46;28.33;;;16.53;;
51810;SDS011;52468;40.116;18.296;2023-03-20T05:06:14;29.43;;;18.17;;
51810;SDS011;52468;40.116;18.296;2023-03-20T05:08:43;26.37;;;17.07;;
51810;SDS011;52468;40.116;18.296;2023-03-20T05:11:11;30.47;;;18.13;;
51810;SDS011;52468;40.116;18.296;2023-03-20T05:13:58;27.43;;;18.20;;
51810;SDS011;52468;40.116;18.296;2023-03-20T05:16:26;34.27;;;18.53;;
51810;SDS011;52468;40.116;18.296;2023-03-20T05:21:46;28.67;;;19.07;;
51810;SDS011;52468;40.116;18.296;2023-03-20T05:24:49;32.17;;;21.80;;
51810;SDS011;52468;40.116;18.296;2023-03-20T05:27:23;24.00;;;16.53;;
51810;SDS011;52468;40.116;18.296;2023-03-20T05:30:05;28.23;;;17.03;;
51810;SDS011;52468;40.116;18.296;2023-03-20T05:32:50;30.17;;;19.33;;
51810;SDS011;52468;40.116;18.296;2023-03-20T05:35:34;28.77;;;19.80;;
51810;SDS011;52468;40.116;18.296;2023-03-20T05:38:17;32.90;;;18.08;;
51810;SDS011;52468;40.116;18.296;2023-03-20T05:41:09;22.63;;;15.67;;
51810;SDS011;52468;40.116;18.296;2023-03-20T05:44:02;22.38;;;14.15;;
51810;SDS011;52468;40.116;18.296;2023-03-20T05:46:53;17.23;;;13.07;;
51810;SDS011;52468;40.116;18.296;2023-03-20T05:49:40;16.93;;;12.73;;
51810;SDS011;52468;40.116;18.296;2023-03-20T05:52:40;18.23;;;12.70;;
51810;SDS011;52468;40.116;18.296;2023-03-20T05:55:20;18.83;;;12.90;;
51810;SDS011;52468;40.116;18.296;2023-03-20T05:58:00;15.03;;;10.33;;
51810;SDS011;52468;40.116;18.296;2023-03-20T06:00:47;13.77;;;10.20;;
51810;SDS011;52468;40.116;18.296;2023-03-20T06:03:33;16.67;;;9.70;;
51810;SDS011;52468;40.116;18.296;2023-03-20T06:06:09;11.83;;;9.17;;
51810;SDS011;52468;40.116;18.296;2023-03-20T06:08:37;9.30;;;7.50;;
51810;SDS011;52468;40.116;18.296;2023-03-20T06:11:06;10.60;;;7.70;;
51810;SDS011;52468;40.116;18.296;2023-03-20T06:13:37;11.87;;;6.50;;
51810;SDS011;52468;40.116;18.296;2023-03-20T06:16:05;14.50;;;6.83;;
51810;SDS011;52468;40.116;18.296;2023-03-20T06:18:35;10.07;;;7.83;;
51810;SDS011;52468;40.116;18.296;2023-03-20T06:21:07;10.13;;;6.50;;
51810;SDS011;52468;40.116;18.296;2023-03-20T06:23:35;9.73;;;6.50;;
51810;SDS011;52468;40.116;18.296;2023-03-20T06:26:03;9.10;;;7.17;;
51810;SDS011;52468;40.116;18.296;2023-03-20T06:28:43;7.93;;;6.53;;
51810;SDS011;52468;40.116;18.296;2023-03-20T06:31:13;9.17;;;6.47;;
51810;SDS011;52468;40.116;18.296;2023-03-20T06:33:41;9.53;;;6.13;;
51810;SDS011;52468;40.116;18.296;2023-03-20T06:36:09;9.97;;;6.10;;
51810;SDS011;52468;40.116;18.296;2023-03-20T06:38:37;7.57;;;5.73;;
51810;SDS011;52468;40.116;18.296;2023-03-20T06:41:11;8.68;;;5.32;;
51810;SDS011;52468;40.116;18.296;2023-03-20T06:43:47;7.00;;;5.20;;
51810;SDS011;52468;40.116;18.296;2023-03-20T06:46:17;7.40;;;4.87;;
51810;SDS011;52468;40.116;18.296;2023-03-20T06:48:46;5.30;;;4.00;;
51810;SDS011;52468;40.116;18.296;2023-03-20T06:51:15;7.50;;;3.67;;
51810;SDS011;52468;40.116;18.296;2023-03-20T06:53:50;5.30;;;3.17;;
51810;SDS011;52468;40.116;18.296;2023-03-20T06:56:21;6.03;;;3.13;;
51810;SDS011;52468;40.116;18.296;2023-03-20T06:58:50;6.07;;;3.23;;
51810;SDS011;52468;40.116;18.296;2023-03-20T07:01:18;5.40;;;3.07;;
51810;SDS011;52468;40.116;18.296;2023-03-20T07:03:46;5.57;;;3.90;;
51810;SDS011;52468;40.116;18.296;2023-03-20T07:06:20;6.10;;;3.60;;
51810;SDS011;52468;40.116;18.296;2023-03-20T07:08:50;6.20;;;4.07;;
51810;SDS011;52468;40.116;18.296;2023-03-20T07:11:20;5.80;;;4.63;;
51810;SDS011;52468;40.116;18.296;2023-03-20T07:13:53;5.90;;;3.70;;
51810;SDS011;52468;40.116;18.296;2023-03-20T07:16:32;3.93;;;3.40;;
51810;SDS011;52468;40.116;18.296;2023-03-20T07:19:01;3.03;;;2.77;;
51810;SDS011;52468;40.116;18.296;2023-03-20T07:21:33;4.30;;;3.90;;
51810;SDS011;52468;40.116;18.296;2023-03-20T07:24:01;7.60;;;3.33;;
51810;SDS011;52468;40.116;18.296;2023-03-20T07:26:30;3.77;;;3.47;;
51810;SDS011;52468;40.116;18.296;2023-03-20T07:28:58;4.50;;;3.30;;
51810;SDS011;52468;40.116;18.296;2023-03-20T07:31:27;6.37;;;3.47;;
51810;SDS011;52468;40.116;18.296;2023-03-20T07:34:22;6.30;;;3.17;;
51810;SDS011;52468;40.116;18.296;2023-03-20T07:36:50;5.77;;;3.07;;
51810;SDS011;52468;40.116;18.296;2023-03-20T07:39:20;3.03;;;2.60;;
51810;SDS011;52468;40.116;18.296;2023-03-20T07:42:17;4.50;;;4.10;;
51810;SDS011;52468;40.116;18.296;2023-03-20T07:44:57;3.37;;;2.50;;
51810;SDS011;52468;40.116;18.296;2023-03-20T07:47:25;2.97;;;2.13;;
51810;SDS011;52468;40.116;18.296;2023-03-20T07:49:53;5.33;;;2.67;;
51810;SDS011;52468;40.116;18.296;2023-03-20T07:52:22;3.47;;;2.60;;
51810;SDS011;52468;40.116;18.296;2023-03-20T07:54:52;6.00;;;2.37;;
51810;SDS011;52468;40.116;18.296;2023-03-20T07:57:20;2.50;;;2.20;;
51810;SDS011;52468;40.116;18.296;2023-03-20T07:59:48;2.57;;;2.37;;
51810;SDS011;52468;40.116;18.296;2023-03-20T08:02:16;5.27;;;2.63;;
51810;SDS011;52468;40.116;18.296;2023-03-20T08:04:44;3.57;;;2.23;;
51810;SDS011;52468;40.116;18.296;2023-03-20T08:07:12;3.20;;;2.90;;
51810;SDS011;52468;40.116;18.296;2023-03-20T08:09:40;2.83;;;2.27;;
51810;SDS011;52468;40.116;18.296;2023-03-20T08:12:08;5.10;;;2.83;;
51810;SDS011;52468;40.116;18.296;2023-03-20T08:14:36;5.83;;;3.20;;
51810;SDS011;52468;40.116;18.296;2023-03-20T08:17:05;3.67;;;2.53;;
51810;SDS011;52468;40.116;18.296;2023-03-20T08:19:41;2.87;;;2.40;;
51810;SDS011;52468;40.116;18.296;2023-03-20T08:22:08;3.40;;;2.80;;
51810;SDS011;52468;40.116;18.296;2023-03-20T08:24:37;4.03;;;2.73;;
51810;SDS011;52468;40.116;18.296;2023-03-20T08:27:05;4.77;;;2.20;;
51810;SDS011;52468;40.116;18.296;2023-03-20T08:29:33;2.60;;;2.17;;
51810;SDS011;52468;40.116;18.296;2023-03-20T08:32:02;5.00;;;2.20;;
51810;SDS011;52468;40.116;18.296;2023-03-20T08:34:30;2.23;;;2.03;;
51810;SDS011;52468;40.116;18.296;2023-03-20T08:37:01;3.77;;;2.77;;
51810;SDS011;52468;40.116;18.296;2023-03-20T08:39:31;3.60;;;2.40;;
51810;SDS011;52468;40.116;18.296;2023-03-20T08:41:59;3.43;;;2.90;;
51810;SDS011;52468;40.116;18.296;2023-03-20T08:44:27;4.37;;;2.63;;
51810;SDS011;52468;40.116;18.296;2023-03-20T08:46:55;3.93;;;2.33;;
51810;SDS011;52468;40.116;18.296;2023-03-20T08:49:23;5.93;;;2.20;;
51810;SDS011;52468;40.116;18.296;2023-03-20T08:51:52;6.23;;;2.10;;
51810;SDS011;52468;40.116;18.296;2023-03-20T08:54:20;4.83;;;2.57;;
51810;SDS011;52468;40.116;18.296;2023-03-20T08:56:48;5.20;;;1.70;;
51810;SDS011;52468;40.116;18.296;2023-03-20T08:59:15;2.40;;;2.03;;
51810;SDS011;52468;40.116;18.296;2023-03-20T09:01:44;2.73;;;2.07;;
51810;SDS011;52468;40.116;18.296;2023-03-20T09:04:16;2.45;;;2.00;;
51810;SDS011;52468;40.116;18.296;2023-03-20T09:06:44;2.97;;;2.00;;
51810;SDS011;52468;40.116;18.296;2023-03-20T09:09:12;3.10;;;1.90;;
51810;SDS011;52468;40.116;18.296;2023-03-20T09:11:41;2.13;;;1.93;;
51810;SDS011;52468;40.116;18.296;2023-03-20T09:14:09;5.13;;;2.60;;
51810;SDS011;52468;40.116;18.296;2023-03-20T09:16:37;2.40;;;2.20;;
51810;SDS011;52468;40.116;18.296;2023-03-20T09:19:05;2.90;;;1.97;;
51810;SDS011;52468;40.116;18.296;2023-03-20T09:21:33;4.80;;;1.90;;
51810;SDS011;52468;40.116;18.296;2023-03-20T09:24:01;2.63;;;1.87;;
51810;SDS011;52468;40.116;18.296;2023-03-20T09:26:29;2.33;;;1.63;;
51810;SDS011;52468;40.116;18.296;2023-03-20T09:28:58;2.33;;;2.13;;
51810;SDS011;52468;40.116;18.296;2023-03-20T09:31:26;4.73;;;1.70;;
51810;SDS011;52468;40.116;18.296;2023-03-20T09:33:54;2.40;;;2.13;;
51810;SDS011;52468;40.116;18.296;2023-03-20T09:36:22;1.87;;;1.53;;
51810;SDS011;52468;40.116;18.296;2023-03-20T09:38:50;3.40;;;1.77;;
51810;SDS011;52468;40.116;18.296;2023-03-20T09:41:21;3.33;;;2.10;;
51810;SDS011;52468;40.116;18.296;2023-03-20T09:49:16;3.50;;;1.77;;
51810;SDS011;52468;40.116;18.296;2023-03-20T09:51:58;3.23;;;2.03;;
51810;SDS011;52468;40.116;18.296;2023-03-20T09:54:43;2.50;;;1.43;;
51810;SDS011;52468;40.116;18.296;2023-03-20T10:00:04;1.97;;;1.80;;
51810;SDS011;52468;40.116;18.296;2023-03-20T10:05:44;3.88;;;2.30;;
51810;SDS011;52468;40.116;18.296;2023-03-20T10:08:16;4.23;;;2.43;;
51810;SDS011;52468;40.116;18.296;2023-03-20T10:10:50;4.03;;;2.23;;
51810;SDS011;52468;40.116;18.296;2023-03-20T10:19:23;2.03;;;1.80;;
51810;SDS011;52468;40.116;18.296;2023-03-20T10:22:25;3.57;;;1.90;;
51810;SDS011;52468;40.116;18.296;2023-03-20T10:28:10;3.13;;;1.77;;
51810;SDS011;52468;40.116;18.296;2023-03-20T10:33:43;1.90;;;1.80;;
51810;SDS011;52468;40.116;18.296;2023-03-20T10:39:04;2.63;;;2.00;;
51810;SDS011;52468;40.116;18.296;2023-03-20T10:41:36;2.50;;;1.97;;
51810;SDS011;52468;40.116;18.296;2023-03-20T10:44:13;3.85;;;2.38;;
51810;SDS011;52468;40.116;18.296;2023-03-20T10:46:53;2.20;;;2.00;;
51810;SDS011;52468;40.116;18.296;2023-03-20T10:49:29;2.17;;;1.90;;
51810;SDS011;52468;40.116;18.296;2023-03-20T10:52:01;2.83;;;1.80;;
51810;SDS011;52468;40.116;18.296;2023-03-20T10:54:39;2.53;;;2.10;;
51810;SDS011;52468;40.116;18.296;2023-03-20T10:57:14;1.90;;;1.80;;
51810;SDS011;52468;40.116;18.296;2023-03-20T10:59:49;4.07;;;1.83;;
51810;SDS011;52468;40.116;18.296;2023-03-20T11:02:19;4.83;;;2.67;;
51810;SDS011;52468;40.116;18.296;2023-03-20T11:04:47;3.07;;;2.10;;
51810;SDS011;52468;40.116;18.296;2023-03-20T11:07:24;2.57;;;1.90;;
51810;SDS011;52468;40.116;18.296;2023-03-20T11:12:32;3.93;;;1.70;;
51810;SDS011;52468;40.116;18.296;2023-03-20T11:15:13;2.27;;;1.73;;
51810;SDS011;52468;40.116;18.296;2023-03-20T11:17:56;2.80;;;1.70;;
51810;SDS011;52468;40.116;18.296;2023-03-20T11:20:31;3.10;;;1.47;;
51810;SDS011;52468;40.116;18.296;2023-03-20T11:23:03;1.53;;;1.27;;
51810;SDS011;52468;40.116;18.296;2023-03-20T11:25:33;2.40;;;1.90;;
51810;SDS011;52468;40.116;18.296;2023-03-20T11:28:20;3.97;;;2.37;;
51810;SDS011;52468;40.116;18.296;2023-03-20T11:31:01;1.70;;;1.60;;
51810;SDS011;52468;40.116;18.296;2023-03-20T11:33:41;5.50;;;1.92;;
51810;SDS011;52468;40.116;18.296;2023-03-20T11:36:18;1.80;;;1.47;;
51810;SDS011;52468;40.116;18.296;2023-03-20T11:39:06;2.97;;;1.80;;
51810;SDS011;52468;40.116;18.296;2023-03-20T11:41:47;1.77;;;1.50;;
51810;SDS011;52468;40.116;18.296;2023-03-20T11:44:25;2.57;;;1.80;;
51810;SDS011;52468;40.116;18.296;2023-03-20T11:46:53;1.88;;;1.40;;
51810;SDS011;52468;40.116;18.296;2023-03-20T11:49:23;2.47;;;1.30;;
51810;SDS011;52468;40.116;18.296;2023-03-20T11:51:55;1.20;;;1.10;;
51810;SDS011;52468;40.116;18.296;2023-03-20T11:54:28;3.10;;;1.90;;
51810;SDS011;52468;40.116;18.296;2023-03-20T11:56:57;1.67;;;1.57;;
51810;SDS011;52468;40.116;18.296;2023-03-20T11:59:30;2.30;;;1.10;;
51810;SDS011;52468;40.116;18.296;2023-03-20T12:02:03;1.30;;;0.97;;
51810;SDS011;52468;40.116;18.296;2023-03-20T12:04:44;1.57;;;1.10;;
51810;SDS011;52468;40.116;18.296;2023-03-20T12:07:29;2.27;;;2.03;;
51810;SDS011;52468;40.116;18.296;2023-03-20T12:10:04;2.13;;;1.53;;
51810;SDS011;52468;40.116;18.296;2023-03-20T12:20:43;1.45;;;1.13;;
51810;SDS011;52468;40.116;18.296;2023-03-20T12:23:23;1.90;;;1.30;;
51810;SDS011;52468;40.116;18.296;2023-03-20T12:28:40;4.57;;;1.80;;
51810;SDS011;52468;40.116;18.296;2023-03-20T12:31:25;2.90;;;1.37;;
51810;SDS011;52468;40.116;18.296;2023-03-20T12:36:38;4.70;;;1.67;;
51810;SDS011;52468;40.116;18.296;2023-03-20T12:39:11;3.13;;;1.48;;
51810;SDS011;52468;40.116;18.296;2023-03-20T12:44:50;1.37;;;1.27;;
51810;SDS011;52468;40.116;18.296;2023-03-20T13:01:29;2.53;;;1.40;;
51810;SDS011;52468;40.116;18.296;2023-03-20T13:04:16;2.43;;;1.40;;
51810;SDS011;52468;40.116;18.296;2023-03-20T13:06:59;1.70;;;1.23;;
51810;SDS011;52468;40.116;18.296;2023-03-20T13:09:32;2.60;;;0.97;;
51810;SDS011;52468;40.116;18.296;2023-03-20T13:12:26;1.83;;;1.17;;
51810;SDS011;52468;40.116;18.296;2023-03-20T13:20:32;2.57;;;1.10;;
51810;SDS011;52468;40.116;18.296;2023-03-20T13:23:22;1.67;;;0.70;;
51810;SDS011;52468;40.116;18.296;2023-03-20T13:39:57;3.07;;;1.40;;
51810;SDS011;52468;40.116;18.296;2023-03-20T13:42:28;2.60;;;1.20;;
51810;SDS011;52468;40.116;18.296;2023-03-20T13:45:24;1.97;;;1.50;;
51810;SDS011;52468;40.116;18.296;2023-03-20T13:47:55;2.23;;;1.30;;
51810;SDS011;52468;40.116;18.296;2023-03-20T13:50:48;4.73;;;1.30;;
51810;SDS011;52468;40.116;18.296;2023-03-20T13:53:27;2.43;;;1.50;;
51810;SDS011;52468;40.116;18.296;2023-03-20T13:56:21;2.70;;;1.33;;
51810;SDS011;52468;40.116;18.296;2023-03-20T14:01:49;8.67;;;7.07;;
51810;SDS011;52468;40.116;18.296;2023-03-20T14:04:45;5.83;;;2.60;;
51810;SDS011;52468;40.116;18.296;2023-03-20T14:07:53;7.72;;;6.93;;
51810;SDS011;52468;40.116;18.296;2023-03-20T14:12:47;4.20;;;1.20;;
51810;SDS011;52468;40.116;18.296;2023-03-20T14:15:48;3.90;;;3.60;;
51810;SDS011;52468;40.116;18.296;2023-03-20T14:18:22;4.77;;;3.83;;
51810;SDS011;52468;40.116;18.296;2023-03-20T14:20:55;3.97;;;3.57;;
51810;SDS011;52468;40.116;18.296;2023-03-20T14:26:37;1.87;;;1.40;;
51810;SDS011;52468;40.116;18.296;2023-03-20T14:31:36;1.90;;;1.60;;
51810;SDS011;52468;40.116;18.296;2023-03-20T14:36:58;2.63;;;1.67;;
51810;SDS011;52468;40.116;18.296;2023-03-20T14:47:59;2.27;;;2.07;;
51810;SDS011;52468;40.116;18.296;2023-03-20T14:53:24;8.73;;;6.47;;
51810;SDS011;52468;40.116;18.296;2023-03-20T15:03:48;1.53;;;1.20;;
51810;SDS011;52468;40.116;18.296;2023-03-20T15:06:23;4.17;;;1.70;;
51810;SDS011;52468;40.116;18.296;2023-03-20T15:09:04;3.90;;;3.60;;
51810;SDS011;52468;40.116;18.296;2023-03-20T15:11:34;2.50;;;1.80;;
51810;SDS011;52468;40.116;18.296;2023-03-20T15:14:05;2.60;;;1.90;;
51810;SDS011;52468;40.116;18.296;2023-03-20T15:16:35;1.70;;;1.50;;
51810;SDS011;52468;40.116;18.296;2023-03-20T15:19:07;6.97;;;5.30;;
51810;SDS011;52468;40.116;18.296;2023-03-20T15:21:45;3.00;;;1.80;;
51810;SDS011;52468;40.116;18.296;2023-03-20T15:24:20;3.13;;;2.60;;
51810;SDS011;52468;40.116;18.296;2023-03-20T15:26:51;1.93;;;1.50;;
51810;SDS011;52468;40.116;18.296;2023-03-20T15:29:25;3.17;;;2.50;;
51810;SDS011;52468;40.116;18.296;2023-03-20T15:31:54;4.93;;;3.53;;
51810;SDS011;52468;40.116;18.296;2023-03-20T15:34:39;3.60;;;3.30;;
51810;SDS011;52468;40.116;18.296;2023-03-20T15:37:12;4.37;;;3.87;;
51810;SDS011;52468;40.116;18.296;2023-03-20T15:39:44;4.93;;;2.90;;
51810;SDS011;52468;40.116;18.296;2023-03-20T15:42:18;6.13;;;3.27;;
51810;SDS011;52468;40.116;18.296;2023-03-20T15:44:48;4.87;;;2.93;;
51810;SDS011;52468;40.116;18.296;2023-03-20T15:47:19;8.03;;;4.17;;
51810;SDS011;52468;40.116;18.296;2023-03-20T15:49:53;11.47;;;8.43;;
51810;SDS011;52468;40.116;18.296;2023-03-20T15:54:53;4.73;;;3.63;;
51810;SDS011;52468;40.116;18.296;2023-03-20T15:57:25;6.07;;;3.40;;
51810;SDS011;52468;40.116;18.296;2023-03-20T16:00:04;7.87;;;5.20;;
51810;SDS011;52468;40.116;18.296;2023-03-20T16:02:40;5.20;;;3.63;;
51810;SDS011;52468;40.116;18.296;2023-03-20T16:05:15;3.37;;;3.07;;
51810;SDS011;52468;40.116;18.296;2023-03-20T16:07:44;4.07;;;3.67;;
51810;SDS011;52468;40.116;18.296;2023-03-20T16:10:19;3.40;;;2.70;;
51810;SDS011;52468;40.116;18.296;2023-03-20T16:12:48;5.97;;;4.20;;
51810;SDS011;52468;40.116;18.296;2023-03-20T16:15:17;4.93;;;2.87;;
51810;SDS011;52468;40.116;18.296;2023-03-20T16:17:48;5.50;;;3.20;;
51810;SDS011;52468;40.116;18.296;2023-03-20T16:20:22;7.20;;;4.47;;
51810;SDS011;52468;40.116;18.296;2023-03-20T16:22:54;6.17;;;4.67;;
51810;SDS011;52468;40.116;18.296;2023-03-20T16:25:26;8.32;;;7.63;;
51810;SDS011;52468;40.116;18.296;2023-03-20T16:27:54;4.67;;;4.27;;
51810;SDS011;52468;40.116;18.296;2023-03-20T16:30:24;3.63;;;3.17;;
51810;SDS011;52468;40.116;18.296;2023-03-20T16:33:00;5.73;;;4.80;;
51810;SDS011;52468;40.116;18.296;2023-03-20T16:35:42;6.40;;;3.80;;
51810;SDS011;52468;40.116;18.296;2023-03-20T16:38:24;15.87;;;11.57;;
51810;SDS011;52468;40.116;18.296;2023-03-20T16:41:13;45.78;;;33.47;;
51810;SDS011;52468;40.116;18.296;2023-03-20T16:46:34;122.82;;;88.32;;
51810;SDS011;52468;40.116;18.296;2023-03-20T16:52:15;24.33;;;16.97;;
51810;SDS011;52468;40.116;18.296;2023-03-20T16:54:43;22.47;;;17.63;;
51810;SDS011;52468;40.116;18.296;2023-03-20T16:57:15;66.83;;;43.17;;
51810;SDS011;52468;40.116;18.296;2023-03-20T16:59:44;85.65;;;54.85;;
51810;SDS011;52468;40.116;18.296;2023-03-20T17:02:32;18.00;;;11.70;;
51810;SDS011;52468;40.116;18.296;2023-03-20T17:05:04;9.10;;;7.50;;
51810;SDS011;52468;40.116;18.296;2023-03-20T17:07:37;24.33;;;19.33;;
51810;SDS011;52468;40.116;18.296;2023-03-20T17:12:45;15.00;;;9.90;;
51810;SDS011;52468;40.116;18.296;2023-03-20T17:15:19;12.27;;;9.60;;
51810;SDS011;52468;40.116;18.296;2023-03-20T17:17:48;17.67;;;11.70;;
51810;SDS011;52468;40.116;18.296;2023-03-20T17:20:21;30.63;;;19.70;;
51810;SDS011;52468;40.116;18.296;2023-03-20T17:22:52;11.80;;;8.57;;
51810;SDS011;52468;40.116;18.296;2023-03-20T17:25:20;14.20;;;8.20;;
51810;SDS011;52468;40.116;18.296;2023-03-20T17:27:48;14.43;;;9.10;;
51810;SDS011;52468;40.116;18.296;2023-03-20T17:30:18;46.00;;;31.43;;
51810;SDS011;52468;40.116;18.296;2023-03-20T17:32:51;14.50;;;9.13;;
51810;SDS011;52468;40.116;18.296;2023-03-20T17:35:19;40.77;;;27.37;;
51810;SDS011;52468;40.116;18.296;2023-03-20T17:37:47;57.00;;;40.83;;
51810;SDS011;52468;40.116;18.296;2023-03-20T17:40:17;18.67;;;10.57;;
51810;SDS011;52468;40.116;18.296;2023-03-20T17:42:47;18.97;;;11.17;;
51810;SDS011;52468;40.116;18.296;2023-03-20T17:45:15;16.50;;;11.80;;
51810;SDS011;52468;40.116;18.296;2023-03-20T17:47:46;18.97;;;12.37;;
51810;SDS011;52468;40.116;18.296;2023-03-20T17:50:19;19.73;;;15.63;;
51810;SDS011;52468;40.116;18.296;2023-03-20T17:52:50;26.63;;;16.83;;
51810;SDS011;52468;40.116;18.296;2023-03-20T17:55:18;19.63;;;15.13;;
51810;SDS011;52468;40.116;18.296;2023-03-20T17:57:47;20.43;;;13.80;;
51810;SDS011;52468;40.116;18.296;2023-03-20T18:00:20;13.80;;;10.67;;
51810;SDS011;52468;40.116;18.296;2023-03-20T18:02:50;9.97;;;7.40;;